Terminal Aerodrome Forecast
Issued by NWS

Home | Current Version | Previous Version | Graphics & Text | Print | Product List | Glossary On
Versions: 1 2 3 4 5 6 7 8 9 10 11 12 13 14
000
FTUS43 KMPX 261100
TAFRNH
TAF
KRNH 261125Z 2612/2712 19002KT 3SM BR SCT009 BKN020
      TEMPO 2612/2614 6SM BR
     FM261400 25004KT P6SM SCT020 SCT120
     FM270000 22009KT P6SM SCT120
     FM270200 26006KT P6SM VCSH SCT060 BKN250
     FM270400 27009KT P6SM SCT050=

USA.gov is the U.S. government's official web portal to all federal, state and local government web resources and services.